createdAt,value
2019-04-05T00:00:55.015Z,25.40
2019-04-05T00:03:23.375Z,25.40
2019-04-05T00:05:50.437Z,25.60
2019-04-05T00:08:18.149Z,25.50
2019-04-05T00:10:45.333Z,25.60
2019-04-05T00:13:14.599Z,25.60
2019-04-05T00:15:41.676Z,25.60
2019-04-05T00:18:08.744Z,25.50
2019-04-05T00:20:37.125Z,25.40
2019-04-05T00:23:05.595Z,25.40
2019-04-05T00:25:34.260Z,25.60
2019-04-05T00:28:01.512Z,25.60
2019-04-05T00:30:29.070Z,25.50
2019-04-05T00:32:56.655Z,25.60
2019-04-05T00:35:24.797Z,25.70
2019-04-05T00:37:52.576Z,25.80
2019-04-05T00:40:19.920Z,25.80
2019-04-05T00:42:47.266Z,25.70
2019-04-05T00:45:27.129Z,25.60
2019-04-05T00:47:43.661Z,25.50
2019-04-05T00:50:11.168Z,25.40
2019-04-05T00:52:38.628Z,25.50
2019-04-05T00:55:05.992Z,25.60
2019-04-05T00:57:33.322Z,25.40
2019-04-05T01:00:00.676Z,25.40
2019-04-05T01:02:28.031Z,25.30
2019-04-05T01:04:55.083Z,25.50
2019-04-05T01:07:23.903Z,25.50
2019-04-05T01:09:51.022Z,25.50
2019-04-05T01:12:18.097Z,25.60
2019-04-05T01:14:45.815Z,25.60
2019-04-05T01:17:24.471Z,25.60
2019-04-05T01:19:42.080Z,25.50
2019-04-05T01:22:09.921Z,25.50
2019-04-05T01:24:37.319Z,25.50
2019-04-05T01:27:04.461Z,25.60
2019-04-05T01:29:31.684Z,25.50
2019-04-05T01:31:58.801Z,25.40
2019-04-05T01:34:25.904Z,25.30
2019-04-05T01:36:52.990Z,25.30
2019-04-05T01:39:20.325Z,25.20
2019-04-05T01:41:47.474Z,25.20
2019-04-05T01:44:14.548Z,25.30
2019-04-05T01:46:41.488Z,25.30
2019-04-05T01:49:08.671Z,25.20
2019-04-05T01:51:37.488Z,25.20
2019-04-05T01:54:05.148Z,25.10
2019-04-05T01:56:32.246Z,25.20
2019-04-05T01:58:59.388Z,25.10
2019-04-05T02:01:27.461Z,25.00
2019-04-05T02:03:54.626Z,25.00
2019-04-05T02:06:21.763Z,25.10
2019-04-05T02:08:48.927Z,25.10
2019-04-05T02:11:18.314Z,25.10
2019-04-05T02:13:45.976Z,25.20
2019-04-05T02:16:13.006Z,25.30
2019-04-05T02:18:40.469Z,25.40
2019-04-05T02:21:08.782Z,25.40
2019-04-05T02:23:36.677Z,25.40
2019-04-05T02:26:04.592Z,25.40
2019-04-05T02:28:32.637Z,25.40
2019-04-05T02:30:59.990Z,25.40
2019-04-05T02:33:27.577Z,25.50
2019-04-05T02:35:55.127Z,25.40
2019-04-05T02:38:22.297Z,25.50
2019-04-05T02:40:49.610Z,25.50
2019-04-05T02:43:16.564Z,25.60
2019-04-05T02:45:43.736Z,25.60
2019-04-05T02:48:11.770Z,25.60
2019-04-05T02:50:40.959Z,25.60
2019-04-05T02:53:07.911Z,25.60
2019-04-05T02:55:35.061Z,25.60
2019-04-05T02:58:02.415Z,25.50
2019-04-05T03:00:29.593Z,25.50
2019-04-05T03:02:56.633Z,25.50
2019-04-05T03:05:23.548Z,25.40
2019-04-05T03:07:50.507Z,25.40
2019-04-05T03:10:54.873Z,25.30
2019-04-05T03:13:22.765Z,25.30
2019-04-05T03:15:50.136Z,25.30
2019-04-05T03:18:17.747Z,25.30
2019-04-05T03:20:45.157Z,25.30
2019-04-05T03:23:12.201Z,25.40
2019-04-05T03:25:39.157Z,25.40
2019-04-05T03:28:06.369Z,25.40
2019-04-05T03:30:33.735Z,25.40
2019-04-05T03:33:00.935Z,25.30
2019-04-05T03:35:29.283Z,25.30
2019-04-05T03:37:56.105Z,25.30
2019-04-05T03:40:22.948Z,25.30
2019-04-05T03:42:49.973Z,25.30
2019-04-05T03:45:16.843Z,25.30
2019-04-05T03:47:43.871Z,25.20
2019-04-05T03:50:10.777Z,25.30
2019-04-05T03:52:38.151Z,25.30
2019-04-05T03:55:05.213Z,25.30
2019-04-05T03:57:32.532Z,25.30
2019-04-05T03:59:59.362Z,25.40
2019-04-05T04:02:26.076Z,25.50
2019-04-05T04:04:52.866Z,25.50
2019-04-05T04:07:19.928Z,25.60
2019-04-05T04:09:46.904Z,25.60
2019-04-05T04:12:16.634Z,25.70
2019-04-05T04:14:45.351Z,25.70
2019-04-05T04:17:13.549Z,25.70
2019-04-05T04:19:40.892Z,25.60
2019-04-05T04:22:23.106Z,25.70
2019-04-05T04:24:50.148Z,25.60
2019-04-05T04:27:17.389Z,25.70
2019-04-05T04:29:44.826Z,25.70
2019-04-05T04:32:12.379Z,25.70
2019-04-05T04:34:39.453Z,25.70
2019-04-05T04:37:06.708Z,25.70
2019-04-05T04:39:33.823Z,25.60
2019-04-05T04:42:00.977Z,25.60
2019-04-05T04:44:29.509Z,25.50
2019-04-05T04:46:56.488Z,25.50
2019-04-05T04:49:23.391Z,25.50
2019-04-05T04:51:50.111Z,25.50
2019-04-05T04:54:17.120Z,25.50
2019-04-05T04:56:43.704Z,25.50
2019-04-05T04:59:10.725Z,25.40
2019-04-05T05:01:37.755Z,25.30
2019-04-05T05:04:08.099Z,25.40
2019-04-05T05:06:35.945Z,25.30
2019-04-05T05:09:05.801Z,25.20
2019-04-05T05:11:32.638Z,25.20
2019-04-05T05:14:00.055Z,25.20
2019-04-05T05:16:27.285Z,25.30
2019-04-05T05:18:55.869Z,25.40
2019-04-05T05:21:23.705Z,25.40
2019-04-05T05:23:50.690Z,25.50
2019-04-05T05:26:17.947Z,25.60
2019-04-05T05:28:45.386Z,25.60
2019-04-05T05:31:13.349Z,25.60
2019-04-05T05:33:40.508Z,25.60
2019-04-05T05:36:10.323Z,25.50
2019-04-05T05:38:36.544Z,25.40
2019-04-05T05:41:04.295Z,25.40
2019-04-05T05:43:31.765Z,25.30
2019-04-05T05:45:59.101Z,25.30
2019-04-05T05:48:26.356Z,25.40
2019-04-05T05:50:53.399Z,25.40
2019-04-05T05:53:20.765Z,25.40
2019-04-05T05:55:48.412Z,25.50
2019-04-05T05:58:15.767Z,25.60
2019-04-05T06:00:43.010Z,25.60
2019-04-05T06:03:11.168Z,25.60
2019-04-05T06:05:41.101Z,25.60
2019-04-05T06:08:08.153Z,25.70
2019-04-05T06:10:35.351Z,25.80
2019-04-05T06:13:06.835Z,25.80
2019-04-05T06:15:31.838Z,25.90
2019-04-05T06:18:04.852Z,25.90
2019-04-05T06:20:29.726Z,25.90
2019-04-05T06:22:57.170Z,26.00
2019-04-05T06:25:24.121Z,26.10
2019-04-05T06:27:51.188Z,26.20
2019-04-05T06:30:18.830Z,26.30
2019-04-05T06:32:46.580Z,26.30
2019-04-05T06:35:14.075Z,26.40
2019-04-05T06:37:41.330Z,26.50
2019-04-05T06:40:08.962Z,26.50
2019-04-05T06:42:36.214Z,26.40
2019-04-05T06:45:04.296Z,26.40
2019-04-05T06:47:31.637Z,26.50
2019-04-05T06:49:58.480Z,26.70
2019-04-05T06:52:25.421Z,27.10
2019-04-05T06:54:52.567Z,27.50
2019-04-05T06:57:19.614Z,27.90
2019-04-05T06:59:46.763Z,28.10
2019-04-05T07:02:13.906Z,28.20
2019-04-05T07:04:41.078Z,28.30
2019-04-05T07:07:07.774Z,28.30
2019-04-05T07:09:34.906Z,28.00
2019-04-05T07:12:01.762Z,27.90
2019-04-05T07:14:28.730Z,27.80
2019-04-05T07:16:56.787Z,27.60
2019-04-05T07:19:23.659Z,27.40
2019-04-05T07:21:50.883Z,27.40
2019-04-05T07:24:18.335Z,27.50
2019-04-05T07:26:45.683Z,27.60
2019-04-05T07:29:13.054Z,27.70
2019-04-05T07:31:40.161Z,27.90
2019-04-05T07:34:08.129Z,27.80
2019-04-05T07:36:35.095Z,27.80
2019-04-05T07:39:02.067Z,27.80
2019-04-05T07:41:31.817Z,27.80
2019-04-05T07:44:00.216Z,27.70
2019-04-05T07:46:27.414Z,27.80
2019-04-05T07:48:54.428Z,27.50
2019-04-05T07:51:22.834Z,27.30
2019-04-05T07:53:49.934Z,27.20
2019-04-05T07:56:16.921Z,27.20
2019-04-05T07:58:43.613Z,27.40
2019-04-05T08:01:10.941Z,27.70
2019-04-05T08:03:37.775Z,28.00
2019-04-05T08:06:04.805Z,28.40
2019-04-05T08:08:39.007Z,28.80
2019-04-05T08:11:06.017Z,29.20
2019-04-05T08:13:34.490Z,29.50
2019-04-05T08:16:01.843Z,29.80
2019-04-05T08:18:29.318Z,30.00
2019-04-05T08:20:56.875Z,30.00
2019-04-05T08:23:24.617Z,30.10
2019-04-05T08:25:51.693Z,30.20
2019-04-05T08:28:19.112Z,30.20
2019-04-05T08:30:46.978Z,30.20
2019-04-05T08:33:14.658Z,30.30
2019-04-05T08:35:42.402Z,30.50
2019-04-05T08:38:11.500Z,30.60
2019-04-05T08:40:38.864Z,30.80
2019-04-05T08:43:06.507Z,31.00
2019-04-05T08:45:33.688Z,31.20
2019-04-05T08:48:01.412Z,31.40
2019-04-05T08:50:28.771Z,31.40
2019-04-05T08:52:56.526Z,31.50
2019-04-05T08:55:23.830Z,31.60
2019-04-05T08:57:51.747Z,31.70
2019-04-05T09:00:19.211Z,31.90
2019-04-05T09:02:46.866Z,32.00
2019-04-05T09:05:14.207Z,32.10
2019-04-05T09:07:41.307Z,32.20
2019-04-05T09:10:08.485Z,32.30
2019-04-05T09:12:35.774Z,32.40
2019-04-05T09:15:05.003Z,32.50
2019-04-05T09:17:32.583Z,32.60
2019-04-05T09:19:59.911Z,32.40
2019-04-05T09:22:27.524Z,32.40
2019-04-05T09:24:54.773Z,32.40
2019-04-05T09:27:22.028Z,32.60
2019-04-05T09:29:49.497Z,32.80
2019-04-05T09:32:17.107Z,33.00
2019-04-05T09:34:44.905Z,33.10
2019-04-05T09:37:12.277Z,33.10
2019-04-05T09:39:40.018Z,33.10
2019-04-05T09:42:08.395Z,33.10
2019-04-05T09:44:36.068Z,33.10
2019-04-05T09:47:04.127Z,33.20
2019-04-05T09:49:36.912Z,33.30
2019-04-05T09:52:01.014Z,33.30
2019-04-05T09:54:28.804Z,33.40
2019-04-05T09:56:56.859Z,33.60
2019-04-05T09:59:25.584Z,33.60
2019-04-05T10:01:53.168Z,33.50
2019-04-05T10:04:20.809Z,33.40
2019-04-05T10:06:48.479Z,33.30
2019-04-05T10:09:15.944Z,33.40
2019-04-05T10:11:43.450Z,33.30
2019-04-05T10:14:12.079Z,33.30
2019-04-05T10:16:39.430Z,33.40
2019-04-05T10:19:07.077Z,33.40
2019-04-05T10:21:34.957Z,33.40
2019-04-05T10:24:03.117Z,33.40
2019-04-05T10:26:30.703Z,33.60
2019-04-05T10:28:58.240Z,33.70
2019-04-05T10:31:25.513Z,33.80
2019-04-05T10:33:52.933Z,34.00
2019-04-05T10:36:20.293Z,33.90
2019-04-05T10:38:48.306Z,33.90
2019-04-05T10:41:15.636Z,33.80
2019-04-05T10:43:44.025Z,33.60
2019-04-05T10:46:11.950Z,33.50
2019-04-05T10:48:40.366Z,33.40
2019-04-05T10:51:09.024Z,33.40
2019-04-05T10:53:36.384Z,33.50
2019-04-05T10:56:04.353Z,33.50
2019-04-05T10:58:32.808Z,33.60
2019-04-05T11:01:01.946Z,33.60
2019-04-05T11:03:29.883Z,33.30
2019-04-05T11:05:57.535Z,33.40
2019-04-05T11:08:25.210Z,33.40
2019-04-05T11:10:52.680Z,33.60
2019-04-05T11:13:19.931Z,33.60
2019-04-05T11:15:47.349Z,33.60
2019-04-05T11:18:14.654Z,33.80
2019-04-05T11:20:41.785Z,33.80
2019-04-05T11:23:09.013Z,33.90
2019-04-05T11:25:35.965Z,33.80
2019-04-05T11:28:05.602Z,33.60
2019-04-05T11:30:43.353Z,33.60
2019-04-05T11:33:10.187Z,33.80
2019-04-05T11:35:37.040Z,33.80
2019-04-05T11:38:06.322Z,33.80
2019-04-05T11:40:33.826Z,33.80
2019-04-05T11:43:02.798Z,33.70
2019-04-05T11:45:31.820Z,33.80
2019-04-05T11:47:58.992Z,33.70
2019-04-05T11:50:34.331Z,33.60
2019-04-05T11:52:54.532Z,33.70
2019-04-05T11:55:21.702Z,34.00
2019-04-05T11:57:48.697Z,34.20
2019-04-05T12:00:20.701Z,34.30
2019-04-05T12:02:49.483Z,34.50
2019-04-05T12:05:17.491Z,34.60
2019-04-05T12:07:44.588Z,34.80
2019-04-05T12:10:11.854Z,34.90
2019-04-05T12:12:38.871Z,35.00
2019-04-05T12:15:06.448Z,35.20
2019-04-05T12:17:35.356Z,35.30
2019-04-05T12:20:05.350Z,35.30
2019-04-05T12:22:34.935Z,35.10
2019-04-05T12:25:05.317Z,34.90
2019-04-05T12:27:32.249Z,34.80
2019-04-05T12:29:59.677Z,34.80
2019-04-05T12:32:34.541Z,34.80
2019-04-05T12:34:57.934Z,34.90
2019-04-05T12:37:25.236Z,35.00
2019-04-05T12:39:52.470Z,35.00
2019-04-05T12:42:19.428Z,35.10
2019-04-05T12:44:47.079Z,34.90
2019-04-05T12:47:15.753Z,34.80
2019-04-05T12:49:45.497Z,34.70
2019-04-05T12:52:22.737Z,34.70
2019-04-05T12:54:41.640Z,34.90
2019-04-05T12:57:08.453Z,35.20
2019-04-05T12:59:36.605Z,35.40
2019-04-05T13:02:03.214Z,35.40
2019-04-05T13:04:29.935Z,35.40
2019-04-05T13:06:56.623Z,35.40
2019-04-05T13:09:24.483Z,35.40
2019-04-05T13:11:51.660Z,35.30
2019-04-05T13:14:19.205Z,35.30
2019-04-05T13:16:49.198Z,35.40
2019-04-05T13:19:15.333Z,35.50
2019-04-05T13:21:43.510Z,35.50
2019-04-05T13:24:10.857Z,35.40
2019-04-05T13:26:37.569Z,35.30
2019-04-05T13:29:05.263Z,35.30
2019-04-05T13:31:31.989Z,35.40
2019-04-05T13:33:58.579Z,35.40
2019-04-05T13:36:25.189Z,35.50
2019-04-05T13:38:55.089Z,35.50
2019-04-05T13:41:20.233Z,35.50
2019-04-05T13:43:48.036Z,35.40
2019-04-05T13:46:21.811Z,35.40
2019-04-05T13:48:43.594Z,35.40
2019-04-05T13:51:13.100Z,35.30
2019-04-05T13:53:42.228Z,35.20
2019-04-05T13:56:10.941Z,35.10
2019-04-05T13:58:38.416Z,34.80
2019-04-05T14:01:05.443Z,34.80
2019-04-05T14:03:32.811Z,34.70
2019-04-05T14:05:59.896Z,34.70
2019-04-05T14:08:26.934Z,34.60
2019-04-05T14:10:54.284Z,34.40
2019-04-05T14:13:21.491Z,34.40
2019-04-05T14:15:48.461Z,34.30
2019-04-05T14:18:15.548Z,34.20
2019-04-05T14:20:42.344Z,34.20
2019-04-05T14:23:09.384Z,34.20
2019-04-05T14:25:36.428Z,34.20
2019-04-05T14:28:04.557Z,34.20
2019-04-05T14:30:32.990Z,34.30
2019-04-05T14:33:01.189Z,34.20
2019-04-05T14:35:28.406Z,34.10
2019-04-05T14:37:55.530Z,34.10
2019-04-05T14:40:23.092Z,34.10
2019-04-05T14:42:50.265Z,34.10
2019-04-05T14:45:17.503Z,34.10
2019-04-05T14:47:44.411Z,34.00
2019-04-05T14:50:12.323Z,34.00
2019-04-05T14:52:40.078Z,33.90
2019-04-05T14:55:07.721Z,33.80
2019-04-05T14:57:36.516Z,33.60
2019-04-05T15:00:07.458Z,33.50
2019-04-05T15:02:36.775Z,33.40
2019-04-05T15:05:05.338Z,33.30
2019-04-05T15:07:32.773Z,33.20
2019-04-05T15:09:59.841Z,33.10
2019-04-05T15:12:29.188Z,33.10
2019-04-05T15:14:55.856Z,33.20
2019-04-05T15:17:23.426Z,33.20
2019-04-05T15:19:52.744Z,33.20
2019-04-05T15:22:20.165Z,33.20
2019-04-05T15:24:47.672Z,33.20
2019-04-05T15:27:17.448Z,33.00
2019-04-05T15:29:45.912Z,33.00
2019-04-05T15:32:13.626Z,32.80
2019-04-05T15:34:42.663Z,32.80
2019-04-05T15:37:10.751Z,32.80
2019-04-05T15:39:39.021Z,32.70
2019-04-05T15:42:06.157Z,32.70
2019-04-05T15:44:34.166Z,32.60
2019-04-05T15:47:01.823Z,32.60
2019-04-05T15:49:30.575Z,32.50
2019-04-05T15:51:59.026Z,32.50
2019-04-05T15:54:28.924Z,32.50
2019-04-05T15:56:56.016Z,32.60
2019-04-05T15:59:23.493Z,32.50
2019-04-05T16:01:51.047Z,32.50
2019-04-05T16:04:18.209Z,32.40
2019-04-05T16:06:45.228Z,32.20
2019-04-05T16:09:14.612Z,32.10
2019-04-05T16:11:41.672Z,32.00
2019-04-05T16:14:08.946Z,32.00
2019-04-05T16:16:36.274Z,32.00
2019-04-05T16:19:04.945Z,32.00
2019-04-05T16:21:32.565Z,32.00
2019-04-05T16:23:59.804Z,31.90
2019-04-05T16:26:28.233Z,31.80
2019-04-05T16:28:55.232Z,31.80
2019-04-05T16:31:22.222Z,31.80
2019-04-05T16:33:49.573Z,31.80
2019-04-05T16:36:16.618Z,31.70
2019-04-05T16:38:44.117Z,31.70
2019-04-05T16:41:11.129Z,31.70
2019-04-05T16:43:38.034Z,31.60
2019-04-05T16:46:07.050Z,31.50
2019-04-05T16:48:34.012Z,31.40
2019-04-05T16:51:02.060Z,31.30
2019-04-05T16:53:29.778Z,31.30
2019-04-05T16:55:56.887Z,31.30
2019-04-05T16:58:24.141Z,31.20
2019-04-05T17:00:51.192Z,31.20
2019-04-05T17:03:18.636Z,31.20
2019-04-05T17:05:46.186Z,31.10
2019-04-05T17:08:13.443Z,31.10
2019-04-05T17:10:42.742Z,31.00
2019-04-05T17:13:10.921Z,30.90
2019-04-05T17:15:39.931Z,30.90
2019-04-05T17:18:08.672Z,30.80
2019-04-05T17:20:35.914Z,30.70
2019-04-05T17:23:03.046Z,30.70
2019-04-05T17:25:31.010Z,30.60
2019-04-05T17:27:58.311Z,30.50
2019-04-05T17:30:25.390Z,30.50
2019-04-05T17:32:52.308Z,30.40
2019-04-05T17:35:20.378Z,30.30
2019-04-05T17:37:47.850Z,30.30
2019-04-05T17:40:17.318Z,30.20
2019-04-05T17:42:44.906Z,30.20
2019-04-05T17:45:11.839Z,30.10
2019-04-05T17:47:39.608Z,30.00
2019-04-05T17:50:10.460Z,30.10
2019-04-05T17:52:36.186Z,30.00
2019-04-05T17:55:04.934Z,30.00
2019-04-05T17:57:32.826Z,29.90
2019-04-05T18:00:00.335Z,30.00
2019-04-05T18:02:28.519Z,29.90
2019-04-05T18:04:55.856Z,29.80
2019-04-05T18:07:23.113Z,29.70
2019-04-05T18:09:50.357Z,29.70
2019-04-05T18:12:18.094Z,29.60
2019-04-05T18:14:45.681Z,29.50
2019-04-05T18:17:13.242Z,29.50
2019-04-05T18:19:41.128Z,29.50
2019-04-05T18:22:08.666Z,29.50
2019-04-05T18:24:36.161Z,29.50
2019-04-05T18:27:03.589Z,29.40
2019-04-05T18:29:31.449Z,29.40
2019-04-05T18:32:00.383Z,29.40
2019-04-05T18:34:27.617Z,29.40
2019-04-05T18:36:54.590Z,29.40
2019-04-05T18:39:21.770Z,29.40
2019-04-05T18:41:49.018Z,29.30
2019-04-05T18:44:16.071Z,29.30
2019-04-05T18:46:44.996Z,29.20
2019-04-05T18:49:12.093Z,29.10
2019-04-05T18:51:39.063Z,29.10
2019-04-05T18:54:06.101Z,29.10
2019-04-05T18:56:33.235Z,29.00
2019-04-05T18:59:00.382Z,29.00
2019-04-05T19:01:27.674Z,29.00
2019-04-05T19:03:54.891Z,28.90
2019-04-05T19:06:22.034Z,28.80
2019-04-05T19:08:50.203Z,28.80
2019-04-05T19:11:17.170Z,28.80
2019-04-05T19:13:44.402Z,28.70
2019-04-05T19:16:11.853Z,28.70
2019-04-05T19:18:39.443Z,28.80
2019-04-05T19:21:07.766Z,28.70
2019-04-05T19:23:35.168Z,28.70
2019-04-05T19:26:02.387Z,28.60
2019-04-05T19:28:30.607Z,28.60
2019-04-05T19:50:53.329Z,28.30
2019-04-05T19:53:20.571Z,28.40
2019-04-05T19:55:47.838Z,28.30
2019-04-05T19:58:15.383Z,28.30
2019-04-05T20:00:44.347Z,28.30
2019-04-05T20:03:11.517Z,28.20
2019-04-05T20:05:40.082Z,28.20
2019-04-05T20:08:07.357Z,28.20
2019-04-05T20:10:34.511Z,28.10
2019-04-05T20:13:02.683Z,28.10
2019-04-05T20:15:31.476Z,28.10
2019-04-05T20:17:58.849Z,28.00
2019-04-05T20:20:26.703Z,28.00
2019-04-05T20:22:54.443Z,28.00
2019-04-05T20:25:21.892Z,28.00
2019-04-05T20:27:49.349Z,27.90
2019-04-05T20:30:17.257Z,27.90
2019-04-05T20:32:45.002Z,27.90
2019-04-05T20:35:12.254Z,27.90
2019-04-05T20:37:40.197Z,27.90
2019-04-05T20:40:07.487Z,27.80
2019-04-05T20:42:34.893Z,27.80
2019-04-05T20:45:02.157Z,27.70
2019-04-05T20:47:31.556Z,27.60
2019-04-05T20:49:58.900Z,27.60
2019-04-05T20:52:25.971Z,27.60
2019-04-05T20:54:53.180Z,27.60
2019-04-05T20:57:21.593Z,27.60
2019-04-05T20:59:49.292Z,27.60
2019-04-05T21:02:16.905Z,27.50
2019-04-05T21:04:44.772Z,27.50
2019-04-05T21:07:13.058Z,27.50
2019-04-05T21:09:40.328Z,27.50
2019-04-05T21:12:08.038Z,27.50
2019-04-05T21:14:35.493Z,27.50
2019-04-05T21:17:03.584Z,27.40
2019-04-05T21:19:30.998Z,27.40
2019-04-05T21:21:59.053Z,27.40
2019-04-05T21:24:35.712Z,27.40
2019-04-05T21:26:56.455Z,27.30
2019-04-05T21:29:23.910Z,27.30
2019-04-05T21:31:51.186Z,27.30
2019-04-05T21:34:18.305Z,27.30
2019-04-05T21:36:45.485Z,27.30
2019-04-05T21:39:13.726Z,27.20
2019-04-05T21:41:41.097Z,27.20
2019-04-05T21:44:08.719Z,27.10
2019-04-05T21:46:36.109Z,27.10
2019-04-05T21:49:03.451Z,27.10
2019-04-05T21:51:30.904Z,27.10
2019-04-05T21:53:58.813Z,27.10
2019-04-05T21:56:26.355Z,27.10
2019-04-05T21:58:54.196Z,27.00
2019-04-05T22:01:22.547Z,27.00
2019-04-05T22:03:51.560Z,27.00
2019-04-05T22:06:19.765Z,27.00
2019-04-05T22:08:46.803Z,26.90
2019-04-05T22:11:13.418Z,26.90
2019-04-05T22:13:40.000Z,26.90
2019-04-05T22:16:06.984Z,26.80
2019-04-05T22:18:33.864Z,26.80
2019-04-05T22:21:00.689Z,26.80
2019-04-05T22:23:28.305Z,26.70
2019-04-05T22:25:55.166Z,26.70
2019-04-05T22:28:23.051Z,26.70
2019-04-05T22:30:50.118Z,26.60
2019-04-05T22:33:16.858Z,26.50
2019-04-05T22:35:44.278Z,26.50
2019-04-05T22:38:11.551Z,26.40
2019-04-05T22:40:40.827Z,26.40
2019-04-05T22:43:07.900Z,26.40
2019-04-05T22:45:34.713Z,26.40
2019-04-05T22:48:01.700Z,26.30
2019-04-05T22:50:29.279Z,26.30
2019-04-05T22:52:56.482Z,26.20
2019-04-05T22:55:23.611Z,26.20
2019-04-05T22:57:50.763Z,26.20
2019-04-05T23:00:19.791Z,26.20
2019-04-05T23:02:50.907Z,26.20
2019-04-05T23:05:17.751Z,26.10
2019-04-05T23:07:44.875Z,26.10
2019-04-05T23:10:11.843Z,26.10
2019-04-05T23:12:38.878Z,26.00
2019-04-05T23:15:06.734Z,26.00
2019-04-05T23:17:33.887Z,26.00
2019-04-05T23:20:00.861Z,26.00
2019-04-05T23:22:27.575Z,25.90
2019-04-05T23:24:54.409Z,25.90
2019-04-05T23:27:22.751Z,25.90
2019-04-05T23:29:49.338Z,25.90
2019-04-05T23:32:16.350Z,25.90
2019-04-05T23:34:43.282Z,25.80
2019-04-05T23:37:10.511Z,25.80
2019-04-05T23:39:37.500Z,25.80
2019-04-05T23:42:04.533Z,25.80
2019-04-05T23:44:31.002Z,25.80
2019-04-05T23:46:58.468Z,25.80
2019-04-05T23:49:25.483Z,25.70
2019-04-05T23:51:52.252Z,25.80
2019-04-05T23:54:18.942Z,25.70
2019-04-05T23:56:45.460Z,25.70
2019-04-05T23:59:12.037Z,25.70
